sensor_id;sensor_type;location;lat;lon;timestamp;temperature;humidity
21115;DHT22;10715;48.546;9.896;2022-07-23T00:00:29;18.10;99.90
21115;DHT22;10715;48.546;9.896;2022-07-23T00:02:54;18.00;99.90
21115;DHT22;10715;48.546;9.896;2022-07-23T00:05:20;17.90;99.90
21115;DHT22;10715;48.546;9.896;2022-07-23T00:07:46;17.70;99.90
21115;DHT22;10715;48.546;9.896;2022-07-23T00:10:12;17.60;99.90
21115;DHT22;10715;48.546;9.896;2022-07-23T00:12:38;17.50;99.90
21115;DHT22;10715;48.546;9.896;2022-07-23T00:15:04;17.40;99.90
21115;DHT22;10715;48.546;9.896;2022-07-23T00:17:30;17.30;99.90
21115;DHT22;10715;48.546;9.896;2022-07-23T00:19:56;17.30;99.90
21115;DHT22;10715;48.546;9.896;2022-07-23T00:22:22;17.30;99.90
21115;DHT22;10715;48.546;9.896;2022-07-23T00:24:47;17.20;99.90
21115;DHT22;10715;48.546;9.896;2022-07-23T00:27:13;17.20;99.90
21115;DHT22;10715;48.546;9.896;2022-07-23T00:29:39;17.20;99.90
21115;DHT22;10715;48.546;9.896;2022-07-23T00:32:04;17.10;99.90
21115;DHT22;10715;48.546;9.896;2022-07-23T00:34:30;17.10;99.90
21115;DHT22;10715;48.546;9.896;2022-07-23T00:36:56;17.10;99.90
21115;DHT22;10715;48.546;9.896;2022-07-23T00:39:25;17.00;99.90
21115;DHT22;10715;48.546;9.896;2022-07-23T00:41:51;17.00;99.90
21115;DHT22;10715;48.546;9.896;2022-07-23T00:44:26;16.90;99.90
21115;DHT22;10715;48.546;9.896;2022-07-23T00:46:57;16.90;99.90
21115;DHT22;10715;48.546;9.896;2022-07-23T00:49:29;17.00;99.90
21115;DHT22;10715;48.546;9.896;2022-07-23T00:51:55;17.00;99.90
21115;DHT22;10715;48.546;9.896;2022-07-23T00:54:23;17.10;99.90
21115;DHT22;10715;48.546;9.896;2022-07-23T00:56:49;17.20;99.90
21115;DHT22;10715;48.546;9.896;2022-07-23T00:59:15;17.20;99.90
21115;DHT22;10715;48.546;9.896;2022-07-23T01:01:42;17.30;99.90
21115;DHT22;10715;48.546;9.896;2022-07-23T01:04:09;17.30;99.90
21115;DHT22;10715;48.546;9.896;2022-07-23T01:06:37;17.30;99.90
21115;DHT22;10715;48.546;9.896;2022-07-23T01:09:04;17.30;99.90
21115;DHT22;10715;48.546;9.896;2022-07-23T01:11:35;17.30;99.90
21115;DHT22;10715;48.546;9.896;2022-07-23T01:14:12;17.30;99.90
21115;DHT22;10715;48.546;9.896;2022-07-23T01:16:39;17.20;99.90
21115;DHT22;10715;48.546;9.896;2022-07-23T01:19:05;17.20;99.90
21115;DHT22;10715;48.546;9.896;2022-07-23T01:21:37;17.30;99.90
21115;DHT22;10715;48.546;9.896;2022-07-23T01:24:04;17.30;99.90
21115;DHT22;10715;48.546;9.896;2022-07-23T01:26:30;17.30;99.90
21115;DHT22;10715;48.546;9.896;2022-07-23T01:28:55;17.40;99.90
21115;DHT22;10715;48.546;9.896;2022-07-23T01:31:21;17.40;99.90
21115;DHT22;10715;48.546;9.896;2022-07-23T01:33:48;17.40;99.90
21115;DHT22;10715;48.546;9.896;2022-07-23T01:36:13;17.50;99.90
21115;DHT22;10715;48.546;9.896;2022-07-23T01:38:39;17.50;99.90
21115;DHT22;10715;48.546;9.896;2022-07-23T01:41:05;17.50;99.90
21115;DHT22;10715;48.546;9.896;2022-07-23T01:43:30;17.40;99.90
21115;DHT22;10715;48.546;9.896;2022-07-23T01:45:56;17.30;99.90
21115;DHT22;10715;48.546;9.896;2022-07-23T01:48:22;17.40;99.90
21115;DHT22;10715;48.546;9.896;2022-07-23T01:50:48;17.40;99.90
21115;DHT22;10715;48.546;9.896;2022-07-23T01:53:14;17.30;99.90
21115;DHT22;10715;48.546;9.896;2022-07-23T01:55:40;17.30;99.90
21115;DHT22;10715;48.546;9.896;2022-07-23T01:58:06;17.20;99.90
21115;DHT22;10715;48.546;9.896;2022-07-23T02:00:32;17.20;99.90
21115;DHT22;10715;48.546;9.896;2022-07-23T02:02:58;17.20;99.90
21115;DHT22;10715;48.546;9.896;2022-07-23T02:05:25;17.30;99.90
21115;DHT22;10715;48.546;9.896;2022-07-23T02:07:51;17.30;99.90
21115;DHT22;10715;48.546;9.896;2022-07-23T02:10:17;17.30;99.90
21115;DHT22;10715;48.546;9.896;2022-07-23T02:12:43;17.30;99.90
21115;DHT22;10715;48.546;9.896;2022-07-23T02:15:09;17.20;99.90
21115;DHT22;10715;48.546;9.896;2022-07-23T02:17:35;17.10;99.90
21115;DHT22;10715;48.546;9.896;2022-07-23T02:20:01;17.10;99.90
21115;DHT22;10715;48.546;9.896;2022-07-23T02:22:26;17.00;99.90
21115;DHT22;10715;48.546;9.896;2022-07-23T02:24:52;17.00;99.90
21115;DHT22;10715;48.546;9.896;2022-07-23T02:27:18;17.00;99.90
21115;DHT22;10715;48.546;9.896;2022-07-23T02:29:43;17.00;99.90
21115;DHT22;10715;48.546;9.896;2022-07-23T02:32:09;17.00;99.90
21115;DHT22;10715;48.546;9.896;2022-07-23T02:34:35;17.00;99.90
21115;DHT22;10715;48.546;9.896;2022-07-23T02:37:00;16.90;99.90
21115;DHT22;10715;48.546;9.896;2022-07-23T02:39:27;16.90;99.90
21115;DHT22;10715;48.546;9.896;2022-07-23T02:41:53;16.80;99.90
21115;DHT22;10715;48.546;9.896;2022-07-23T02:44:19;16.80;99.90
21115;DHT22;10715;48.546;9.896;2022-07-23T02:46:44;16.80;99.90
21115;DHT22;10715;48.546;9.896;2022-07-23T02:49:10;16.80;99.90
21115;DHT22;10715;48.546;9.896;2022-07-23T02:51:36;16.80;99.90
21115;DHT22;10715;48.546;9.896;2022-07-23T02:54:01;16.70;99.90
21115;DHT22;10715;48.546;9.896;2022-07-23T02:56:27;16.70;99.90
21115;DHT22;10715;48.546;9.896;2022-07-23T02:58:53;16.70;99.90
21115;DHT22;10715;48.546;9.896;2022-07-23T03:01:18;16.60;99.90
21115;DHT22;10715;48.546;9.896;2022-07-23T03:03:44;16.70;99.90
21115;DHT22;10715;48.546;9.896;2022-07-23T03:06:10;16.70;99.90
21115;DHT22;10715;48.546;9.896;2022-07-23T03:08:35;16.70;99.90
21115;DHT22;10715;48.546;9.896;2022-07-23T03:11:01;16.70;99.90
21115;DHT22;10715;48.546;9.896;2022-07-23T03:13:27;16.70;99.90
21115;DHT22;10715;48.546;9.896;2022-07-23T03:15:53;16.70;99.90
21115;DHT22;10715;48.546;9.896;2022-07-23T03:18:18;16.80;99.90
21115;DHT22;10715;48.546;9.896;2022-07-23T03:20:44;16.90;99.90
21115;DHT22;10715;48.546;9.896;2022-07-23T03:23:10;16.90;99.90
21115;DHT22;10715;48.546;9.896;2022-07-23T03:25:36;16.80;99.90
21115;DHT22;10715;48.546;9.896;2022-07-23T03:28:02;16.80;99.90
21115;DHT22;10715;48.546;9.896;2022-07-23T03:30:28;16.80;99.90
21115;DHT22;10715;48.546;9.896;2022-07-23T03:32:54;16.70;99.90
21115;DHT22;10715;48.546;9.896;2022-07-23T03:35:19;16.60;99.90
21115;DHT22;10715;48.546;9.896;2022-07-23T03:37:45;16.60;99.90
21115;DHT22;10715;48.546;9.896;2022-07-23T03:40:11;16.50;99.90
21115;DHT22;10715;48.546;9.896;2022-07-23T03:42:37;16.50;99.90
21115;DHT22;10715;48.546;9.896;2022-07-23T03:45:05;16.50;99.90
21115;DHT22;10715;48.546;9.896;2022-07-23T03:47:31;16.40;99.90
21115;DHT22;10715;48.546;9.896;2022-07-23T03:49:57;16.40;99.90
21115;DHT22;10715;48.546;9.896;2022-07-23T03:52:22;16.40;99.90
21115;DHT22;10715;48.546;9.896;2022-07-23T03:54:48;16.40;99.90
21115;DHT22;10715;48.546;9.896;2022-07-23T03:57:14;16.40;99.90
21115;DHT22;10715;48.546;9.896;2022-07-23T03:59:39;16.50;99.90
21115;DHT22;10715;48.546;9.896;2022-07-23T04:02:05;16.50;99.90
21115;DHT22;10715;48.546;9.896;2022-07-23T04:04:31;16.50;99.90
21115;DHT22;10715;48.546;9.896;2022-07-23T04:06:56;16.50;99.90
21115;DHT22;10715;48.546;9.896;2022-07-23T04:09:22;16.50;99.90
21115;DHT22;10715;48.546;9.896;2022-07-23T04:11:48;16.50;99.90
21115;DHT22;10715;48.546;9.896;2022-07-23T04:14:13;16.50;99.90
21115;DHT22;10715;48.546;9.896;2022-07-23T04:16:39;16.60;99.90
21115;DHT22;10715;48.546;9.896;2022-07-23T04:19:05;16.60;99.90
21115;DHT22;10715;48.546;9.896;2022-07-23T04:21:31;16.60;99.90
21115;DHT22;10715;48.546;9.896;2022-07-23T04:23:56;16.60;99.90
21115;DHT22;10715;48.546;9.896;2022-07-23T04:26:22;16.60;99.90
21115;DHT22;10715;48.546;9.896;2022-07-23T04:28:48;16.70;99.90
21115;DHT22;10715;48.546;9.896;2022-07-23T04:31:13;16.70;99.90
21115;DHT22;10715;48.546;9.896;2022-07-23T04:33:39;16.70;99.90
21115;DHT22;10715;48.546;9.896;2022-07-23T04:36:05;16.70;99.90
21115;DHT22;10715;48.546;9.896;2022-07-23T04:38:31;16.70;99.90
21115;DHT22;10715;48.546;9.896;2022-07-23T04:40:58;16.70;99.90
21115;DHT22;10715;48.546;9.896;2022-07-23T04:43:24;16.70;99.90
21115;DHT22;10715;48.546;9.896;2022-07-23T04:45:49;16.70;99.90
21115;DHT22;10715;48.546;9.896;2022-07-23T04:48:15;16.70;99.90
21115;DHT22;10715;48.546;9.896;2022-07-23T04:50:41;16.70;99.90
21115;DHT22;10715;48.546;9.896;2022-07-23T04:53:08;16.70;99.90
21115;DHT22;10715;48.546;9.896;2022-07-23T04:55:34;16.70;99.90
21115;DHT22;10715;48.546;9.896;2022-07-23T04:57:59;16.70;99.90
21115;DHT22;10715;48.546;9.896;2022-07-23T05:00:25;16.70;99.90
21115;DHT22;10715;48.546;9.896;2022-07-23T05:02:51;16.70;99.90
21115;DHT22;10715;48.546;9.896;2022-07-23T05:05:16;16.80;99.90
21115;DHT22;10715;48.546;9.896;2022-07-23T05:07:42;17.00;99.90
21115;DHT22;10715;48.546;9.896;2022-07-23T05:10:08;17.10;99.90
21115;DHT22;10715;48.546;9.896;2022-07-23T05:12:34;17.40;99.90
21115;DHT22;10715;48.546;9.896;2022-07-23T05:14:59;17.60;99.90
21115;DHT22;10715;48.546;9.896;2022-07-23T05:17:25;17.90;99.90
21115;DHT22;10715;48.546;9.896;2022-07-23T05:19:51;18.10;99.90
21115;DHT22;10715;48.546;9.896;2022-07-23T05:22:17;18.30;99.90
21115;DHT22;10715;48.546;9.896;2022-07-23T05:24:42;18.60;99.90
21115;DHT22;10715;48.546;9.896;2022-07-23T05:27:08;18.90;99.90
21115;DHT22;10715;48.546;9.896;2022-07-23T05:29:34;18.90;99.90
21115;DHT22;10715;48.546;9.896;2022-07-23T05:32:00;19.10;99.90
21115;DHT22;10715;48.546;9.896;2022-07-23T05:34:25;19.50;99.90
21115;DHT22;10715;48.546;9.896;2022-07-23T05:36:51;19.80;99.90
21115;DHT22;10715;48.546;9.896;2022-07-23T05:39:17;20.10;99.90
21115;DHT22;10715;48.546;9.896;2022-07-23T05:41:43;20.80;99.90
21115;DHT22;10715;48.546;9.896;2022-07-23T05:44:08;21.90;99.90
21115;DHT22;10715;48.546;9.896;2022-07-23T05:46:34;22.60;99.90
21115;DHT22;10715;48.546;9.896;2022-07-23T05:49:00;22.70;99.90
21115;DHT22;10715;48.546;9.896;2022-07-23T05:51:25;22.40;99.90
21115;DHT22;10715;48.546;9.896;2022-07-23T05:53:51;22.00;99.90
21115;DHT22;10715;48.546;9.896;2022-07-23T05:56:18;21.60;99.90
21115;DHT22;10715;48.546;9.896;2022-07-23T05:58:44;21.30;99.90
21115;DHT22;10715;48.546;9.896;2022-07-23T06:01:10;21.00;99.90
21115;DHT22;10715;48.546;9.896;2022-07-23T06:03:37;20.80;99.90
21115;DHT22;10715;48.546;9.896;2022-07-23T06:06:04;20.50;99.90
21115;DHT22;10715;48.546;9.896;2022-07-23T06:08:30;20.30;99.90
21115;DHT22;10715;48.546;9.896;2022-07-23T06:10:56;20.50;99.90
21115;DHT22;10715;48.546;9.896;2022-07-23T06:13:22;20.50;99.90
21115;DHT22;10715;48.546;9.896;2022-07-23T06:15:47;20.70;99.90
21115;DHT22;10715;48.546;9.896;2022-07-23T06:18:14;21.10;99.90
21115;DHT22;10715;48.546;9.896;2022-07-23T06:20:40;21.70;99.90
21115;DHT22;10715;48.546;9.896;2022-07-23T06:23:06;22.90;99.90
21115;DHT22;10715;48.546;9.896;2022-07-23T06:25:31;24.40;99.90
21115;DHT22;10715;48.546;9.896;2022-07-23T06:27:57;25.70;99.90
21115;DHT22;10715;48.546;9.896;2022-07-23T06:30:23;27.10;99.90
21115;DHT22;10715;48.546;9.896;2022-07-23T06:32:49;28.30;99.90
21115;DHT22;10715;48.546;9.896;2022-07-23T06:35:15;29.20;99.90
21115;DHT22;10715;48.546;9.896;2022-07-23T06:37:41;29.90;99.90
21115;DHT22;10715;48.546;9.896;2022-07-23T06:40:07;30.50;99.90
21115;DHT22;10715;48.546;9.896;2022-07-23T06:42:33;30.90;99.90
21115;DHT22;10715;48.546;9.896;2022-07-23T06:45:03;31.20;99.70
21115;DHT22;10715;48.546;9.896;2022-07-23T06:47:28;31.60;97.20
21115;DHT22;10715;48.546;9.896;2022-07-23T06:49:54;32.00;98.00
21115;DHT22;10715;48.546;9.896;2022-07-23T06:52:22;32.50;94.30
21115;DHT22;10715;48.546;9.896;2022-07-23T06:54:47;32.90;92.50
21115;DHT22;10715;48.546;9.896;2022-07-23T06:57:14;32.80;83.90
21115;DHT22;10715;48.546;9.896;2022-07-23T06:59:40;32.30;90.90
21115;DHT22;10715;48.546;9.896;2022-07-23T07:02:06;32.70;90.90
21115;DHT22;10715;48.546;9.896;2022-07-23T07:04:32;33.50;87.30
21115;DHT22;10715;48.546;9.896;2022-07-23T07:06:58;34.10;84.10
21115;DHT22;10715;48.546;9.896;2022-07-23T07:09:24;34.70;79.00
21115;DHT22;10715;48.546;9.896;2022-07-23T07:11:50;35.00;77.90
21115;DHT22;10715;48.546;9.896;2022-07-23T07:14:15;35.00;75.70
21115;DHT22;10715;48.546;9.896;2022-07-23T07:16:41;35.10;77.40
21115;DHT22;10715;48.546;9.896;2022-07-23T07:19:07;35.30;73.90
21115;DHT22;10715;48.546;9.896;2022-07-23T07:21:32;35.00;73.00
21115;DHT22;10715;48.546;9.896;2022-07-23T07:23:58;34.50;72.00
21115;DHT22;10715;48.546;9.896;2022-07-23T07:26:24;34.10;71.30
21115;DHT22;10715;48.546;9.896;2022-07-23T07:28:50;34.10;71.70
21115;DHT22;10715;48.546;9.896;2022-07-23T07:31:19;34.40;72.90
21115;DHT22;10715;48.546;9.896;2022-07-23T07:33:44;34.70;70.70
21115;DHT22;10715;48.546;9.896;2022-07-23T07:36:10;35.00;69.60
21115;DHT22;10715;48.546;9.896;2022-07-23T07:38:36;35.30;67.70
21115;DHT22;10715;48.546;9.896;2022-07-23T07:41:02;35.60;69.30
21115;DHT22;10715;48.546;9.896;2022-07-23T07:43:27;35.80;69.80
21115;DHT22;10715;48.546;9.896;2022-07-23T07:45:53;35.80;66.40
21115;DHT22;10715;48.546;9.896;2022-07-23T07:48:19;35.60;68.50
21115;DHT22;10715;48.546;9.896;2022-07-23T07:50:44;35.80;67.50
21115;DHT22;10715;48.546;9.896;2022-07-23T07:53:10;36.10;67.60
21115;DHT22;10715;48.546;9.896;2022-07-23T07:55:36;36.90;65.00
21115;DHT22;10715;48.546;9.896;2022-07-23T07:58:02;37.00;62.80
21115;DHT22;10715;48.546;9.896;2022-07-23T08:00:28;36.90;62.20
21115;DHT22;10715;48.546;9.896;2022-07-23T08:02:55;36.20;62.70
21115;DHT22;10715;48.546;9.896;2022-07-23T08:05:26;35.20;64.00
21115;DHT22;10715;48.546;9.896;2022-07-23T08:07:52;34.50;66.20
21115;DHT22;10715;48.546;9.896;2022-07-23T08:10:18;33.90;66.30
21115;DHT22;10715;48.546;9.896;2022-07-23T08:12:52;33.80;67.60
21115;DHT22;10715;48.546;9.896;2022-07-23T08:15:22;34.50;65.40
21115;DHT22;10715;48.546;9.896;2022-07-23T08:17:49;35.70;65.20
21115;DHT22;10715;48.546;9.896;2022-07-23T08:20:17;36.70;60.00
21115;DHT22;10715;48.546;9.896;2022-07-23T08:25:09;37.90;56.50
21115;DHT22;10715;48.546;9.896;2022-07-23T08:27:35;38.10;57.50
21115;DHT22;10715;48.546;9.896;2022-07-23T08:30:00;38.40;56.20
21115;DHT22;10715;48.546;9.896;2022-07-23T08:32:26;37.80;56.50
21115;DHT22;10715;48.546;9.896;2022-07-23T08:34:52;36.00;58.90
21115;DHT22;10715;48.546;9.896;2022-07-23T08:37:18;34.70;60.50
21115;DHT22;10715;48.546;9.896;2022-07-23T08:39:43;33.20;64.40
21115;DHT22;10715;48.546;9.896;2022-07-23T08:42:09;31.90;70.40
21115;DHT22;10715;48.546;9.896;2022-07-23T08:44:35;31.00;71.60
21115;DHT22;10715;48.546;9.896;2022-07-23T08:47:01;31.40;71.90
21115;DHT22;10715;48.546;9.896;2022-07-23T08:49:28;31.20;69.70
21115;DHT22;10715;48.546;9.896;2022-07-23T08:51:54;30.70;73.00
21115;DHT22;10715;48.546;9.896;2022-07-23T08:54:21;30.20;72.90
21115;DHT22;10715;48.546;9.896;2022-07-23T08:56:48;29.90;72.20
21115;DHT22;10715;48.546;9.896;2022-07-23T08:59:14;29.40;74.30
21115;DHT22;10715;48.546;9.896;2022-07-23T09:01:40;30.30;73.30
21115;DHT22;10715;48.546;9.896;2022-07-23T09:04:05;31.40;68.70
21115;DHT22;10715;48.546;9.896;2022-07-23T09:06:31;31.90;69.90
21115;DHT22;10715;48.546;9.896;2022-07-23T09:08:57;31.60;70.60
21115;DHT22;10715;48.546;9.896;2022-07-23T09:11:23;30.90;71.40
21115;DHT22;10715;48.546;9.896;2022-07-23T09:13:53;30.30;73.80
21115;DHT22;10715;48.546;9.896;2022-07-23T09:16:24;29.70;74.80
21115;DHT22;10715;48.546;9.896;2022-07-23T09:18:52;29.10;76.60
21115;DHT22;10715;48.546;9.896;2022-07-23T09:21:35;28.60;80.80
21115;DHT22;10715;48.546;9.896;2022-07-23T09:24:07;28.00;79.50
21115;DHT22;10715;48.546;9.896;2022-07-23T09:31:57;27.70;86.70
21115;DHT22;10715;48.546;9.896;2022-07-23T09:34:26;29.70;80.30
21115;DHT22;10715;48.546;9.896;2022-07-23T09:36:57;31.00;74.20
21115;DHT22;10715;48.546;9.896;2022-07-23T09:39:31;31.30;75.70
21115;DHT22;10715;48.546;9.896;2022-07-23T09:42:32;31.40;72.50
21115;DHT22;10715;48.546;9.896;2022-07-23T09:44:52;30.90;74.80
21115;DHT22;10715;48.546;9.896;2022-07-23T09:47:18;30.50;74.60
21115;DHT22;10715;48.546;9.896;2022-07-23T09:50:04;30.30;73.70
21115;DHT22;10715;48.546;9.896;2022-07-23T09:52:42;30.40;76.10
21115;DHT22;10715;48.546;9.896;2022-07-23T09:55:10;30.70;76.10
21115;DHT22;10715;48.546;9.896;2022-07-23T09:57:36;31.20;76.40
21115;DHT22;10715;48.546;9.896;2022-07-23T10:00:05;32.00;72.00
21115;DHT22;10715;48.546;9.896;2022-07-23T10:02:34;31.90;73.00
21115;DHT22;10715;48.546;9.896;2022-07-23T10:05:01;31.20;74.30
21115;DHT22;10715;48.546;9.896;2022-07-23T10:07:28;30.40;75.10
21115;DHT22;10715;48.546;9.896;2022-07-23T10:09:57;29.60;75.10
21115;DHT22;10715;48.546;9.896;2022-07-23T10:12:24;28.90;76.60
21115;DHT22;10715;48.546;9.896;2022-07-23T10:15:09;28.40;81.60
21115;DHT22;10715;48.546;9.896;2022-07-23T10:17:35;27.80;83.00
21115;DHT22;10715;48.546;9.896;2022-07-23T10:20:03;27.30;86.00
21115;DHT22;10715;48.546;9.896;2022-07-23T10:22:31;27.00;86.10
21115;DHT22;10715;48.546;9.896;2022-07-23T10:25:27;26.80;87.70
21115;DHT22;10715;48.546;9.896;2022-07-23T10:28:18;26.70;89.90
21115;DHT22;10715;48.546;9.896;2022-07-23T10:33:44;26.60;90.50
21115;DHT22;10715;48.546;9.896;2022-07-23T10:39:15;27.00;90.30
21115;DHT22;10715;48.546;9.896;2022-07-23T10:41:43;27.00;89.80
21115;DHT22;10715;48.546;9.896;2022-07-23T10:44:33;27.10;88.60
21115;DHT22;10715;48.546;9.896;2022-07-23T10:47:04;27.30;90.20
21115;DHT22;10715;48.546;9.896;2022-07-23T10:49:39;27.70;89.00
21115;DHT22;10715;48.546;9.896;2022-07-23T10:54:45;31.70;75.60
21115;DHT22;10715;48.546;9.896;2022-07-23T10:57:13;33.90;70.60
21115;DHT22;10715;48.546;9.896;2022-07-23T11:02:29;36.40;60.00
21115;DHT22;10715;48.546;9.896;2022-07-23T11:05:01;37.40;61.10
21115;DHT22;10715;48.546;9.896;2022-07-23T11:07:28;38.30;58.20
21115;DHT22;10715;48.546;9.896;2022-07-23T11:09:54;39.10;55.50
21115;DHT22;10715;48.546;9.896;2022-07-23T11:15:12;40.10;55.10
21115;DHT22;10715;48.546;9.896;2022-07-23T11:17:59;40.40;52.20
21115;DHT22;10715;48.546;9.896;2022-07-23T11:20:25;39.50;54.00
21115;DHT22;10715;48.546;9.896;2022-07-23T11:22:56;37.50;55.60
21115;DHT22;10715;48.546;9.896;2022-07-23T11:27:53;33.80;64.00
21115;DHT22;10715;48.546;9.896;2022-07-23T11:32:52;31.10;69.10
21115;DHT22;10715;48.546;9.896;2022-07-23T11:35:20;30.40;71.10
21115;DHT22;10715;48.546;9.896;2022-07-23T11:37:47;30.20;73.10
21115;DHT22;10715;48.546;9.896;2022-07-23T11:40:16;30.10;75.10
21115;DHT22;10715;48.546;9.896;2022-07-23T11:45:20;30.70;75.00
21115;DHT22;10715;48.546;9.896;2022-07-23T11:47:46;30.70;71.30
21115;DHT22;10715;48.546;9.896;2022-07-23T11:50:12;30.50;71.60
21115;DHT22;10715;48.546;9.896;2022-07-23T11:52:39;30.10;72.90
21115;DHT22;10715;48.546;9.896;2022-07-23T11:55:07;29.60;73.80
21115;DHT22;10715;48.546;9.896;2022-07-23T11:57:38;29.30;74.90
21115;DHT22;10715;48.546;9.896;2022-07-23T12:00:11;29.40;75.00
21115;DHT22;10715;48.546;9.896;2022-07-23T12:02:41;29.40;75.20
21115;DHT22;10715;48.546;9.896;2022-07-23T12:05:12;29.40;75.30
21115;DHT22;10715;48.546;9.896;2022-07-23T12:07:41;29.20;74.70
21115;DHT22;10715;48.546;9.896;2022-07-23T12:10:29;28.90;74.60
21115;DHT22;10715;48.546;9.896;2022-07-23T12:12:58;28.70;75.40
21115;DHT22;10715;48.546;9.896;2022-07-23T12:15:26;28.70;76.40
21115;DHT22;10715;48.546;9.896;2022-07-23T12:17:53;28.70;75.70
21115;DHT22;10715;48.546;9.896;2022-07-23T12:20:24;28.40;76.10
21115;DHT22;10715;48.546;9.896;2022-07-23T12:22:55;28.10;78.20
21115;DHT22;10715;48.546;9.896;2022-07-23T12:25:24;28.30;78.70
21115;DHT22;10715;48.546;9.896;2022-07-23T12:28:08;28.50;77.40
21115;DHT22;10715;48.546;9.896;2022-07-23T12:30:39;29.10;76.70
21115;DHT22;10715;48.546;9.896;2022-07-23T12:33:06;29.50;75.10
21115;DHT22;10715;48.546;9.896;2022-07-23T12:35:42;29.80;74.40
21115;DHT22;10715;48.546;9.896;2022-07-23T12:38:12;29.80;73.00
21115;DHT22;10715;48.546;9.896;2022-07-23T12:40:53;29.40;74.00
21115;DHT22;10715;48.546;9.896;2022-07-23T12:43:41;29.10;75.10
21115;DHT22;10715;48.546;9.896;2022-07-23T12:46:25;28.80;75.30
21115;DHT22;10715;48.546;9.896;2022-07-23T12:48:52;28.80;76.80
21115;DHT22;10715;48.546;9.896;2022-07-23T12:51:29;28.90;74.90
21115;DHT22;10715;48.546;9.896;2022-07-23T12:53:59;28.90;74.10
21115;DHT22;10715;48.546;9.896;2022-07-23T12:56:34;29.00;76.40
21115;DHT22;10715;48.546;9.896;2022-07-23T13:01:30;29.40;75.00
21115;DHT22;10715;48.546;9.896;2022-07-23T13:06:26;29.90;72.60
21115;DHT22;10715;48.546;9.896;2022-07-23T13:08:52;30.00;70.70
21115;DHT22;10715;48.546;9.896;2022-07-23T13:11:18;30.00;70.50
21115;DHT22;10715;48.546;9.896;2022-07-23T13:13:43;30.00;70.60
21115;DHT22;10715;48.546;9.896;2022-07-23T13:16:09;29.90;70.40
21115;DHT22;10715;48.546;9.896;2022-07-23T13:18:35;29.50;71.30
21115;DHT22;10715;48.546;9.896;2022-07-23T13:21:01;29.40;71.40
21115;DHT22;10715;48.546;9.896;2022-07-23T13:23:28;29.40;71.90
21115;DHT22;10715;48.546;9.896;2022-07-23T13:25:54;29.60;73.10
21115;DHT22;10715;48.546;9.896;2022-07-23T13:28:21;29.50;70.80
21115;DHT22;10715;48.546;9.896;2022-07-23T13:30:48;29.20;72.30
21115;DHT22;10715;48.546;9.896;2022-07-23T13:33:19;29.10;73.70
21115;DHT22;10715;48.546;9.896;2022-07-23T13:35:44;28.80;73.60
21115;DHT22;10715;48.546;9.896;2022-07-23T13:38:10;28.70;73.00
21115;DHT22;10715;48.546;9.896;2022-07-23T13:40:39;28.70;73.50
21115;DHT22;10715;48.546;9.896;2022-07-23T13:43:06;28.60;74.00
21115;DHT22;10715;48.546;9.896;2022-07-23T13:45:33;28.70;73.70
21115;DHT22;10715;48.546;9.896;2022-07-23T13:47:59;28.50;71.60
21115;DHT22;10715;48.546;9.896;2022-07-23T13:50:25;28.50;71.00
21115;DHT22;10715;48.546;9.896;2022-07-23T13:52:51;28.50;72.70
21115;DHT22;10715;48.546;9.896;2022-07-23T13:55:16;28.60;72.20
21115;DHT22;10715;48.546;9.896;2022-07-23T13:57:42;28.70;72.50
21115;DHT22;10715;48.546;9.896;2022-07-23T14:00:09;28.80;71.50
21115;DHT22;10715;48.546;9.896;2022-07-23T14:02:37;28.70;71.30
21115;DHT22;10715;48.546;9.896;2022-07-23T14:05:05;28.50;71.20
21115;DHT22;10715;48.546;9.896;2022-07-23T14:07:31;28.50;71.00
21115;DHT22;10715;48.546;9.896;2022-07-23T14:09:57;28.60;71.80
21115;DHT22;10715;48.546;9.896;2022-07-23T14:12:23;28.90;72.20
21115;DHT22;10715;48.546;9.896;2022-07-23T14:14:48;28.90;71.30
21115;DHT22;10715;48.546;9.896;2022-07-23T14:17:14;29.00;69.60
21115;DHT22;10715;48.546;9.896;2022-07-23T14:19:40;29.00;69.30
21115;DHT22;10715;48.546;9.896;2022-07-23T14:22:05;29.10;70.20
21115;DHT22;10715;48.546;9.896;2022-07-23T14:24:31;29.00;68.30
21115;DHT22;10715;48.546;9.896;2022-07-23T14:26:57;29.00;71.00
21115;DHT22;10715;48.546;9.896;2022-07-23T14:29:24;29.10;69.90
21115;DHT22;10715;48.546;9.896;2022-07-23T14:31:50;29.20;68.70
21115;DHT22;10715;48.546;9.896;2022-07-23T14:34:15;28.90;69.40
21115;DHT22;10715;48.546;9.896;2022-07-23T14:36:41;28.60;69.40
21115;DHT22;10715;48.546;9.896;2022-07-23T14:39:07;28.50;70.10
21115;DHT22;10715;48.546;9.896;2022-07-23T14:41:34;28.40;69.50
21115;DHT22;10715;48.546;9.896;2022-07-23T14:44:01;28.10;70.50
21115;DHT22;10715;48.546;9.896;2022-07-23T14:46:27;28.00;71.30
21115;DHT22;10715;48.546;9.896;2022-07-23T14:48:53;28.10;71.90
21115;DHT22;10715;48.546;9.896;2022-07-23T14:51:18;28.20;71.60
21115;DHT22;10715;48.546;9.896;2022-07-23T14:53:44;27.90;71.30
21115;DHT22;10715;48.546;9.896;2022-07-23T14:56:11;27.80;72.80
21115;DHT22;10715;48.546;9.896;2022-07-23T14:58:39;27.60;72.60
21115;DHT22;10715;48.546;9.896;2022-07-23T15:01:05;27.40;73.60
21115;DHT22;10715;48.546;9.896;2022-07-23T15:03:31;27.30;74.80
21115;DHT22;10715;48.546;9.896;2022-07-23T15:05:57;27.20;74.80
21115;DHT22;10715;48.546;9.896;2022-07-23T15:08:22;27.40;75.30
21115;DHT22;10715;48.546;9.896;2022-07-23T15:10:48;27.50;73.60
21115;DHT22;10715;48.546;9.896;2022-07-23T15:13:14;27.60;73.60
21115;DHT22;10715;48.546;9.896;2022-07-23T15:15:39;27.50;73.20
21115;DHT22;10715;48.546;9.896;2022-07-23T15:18:05;27.20;74.50
21115;DHT22;10715;48.546;9.896;2022-07-23T15:20:31;27.10;75.40
21115;DHT22;10715;48.546;9.896;2022-07-23T15:22:57;27.10;76.20
21115;DHT22;10715;48.546;9.896;2022-07-23T15:25:23;27.20;75.80
21115;DHT22;10715;48.546;9.896;2022-07-23T15:27:49;27.50;75.90
21115;DHT22;10715;48.546;9.896;2022-07-23T15:30:15;27.60;76.30
21115;DHT22;10715;48.546;9.896;2022-07-23T15:32:40;27.60;74.10
21115;DHT22;10715;48.546;9.896;2022-07-23T15:35:07;27.50;74.30
21115;DHT22;10715;48.546;9.896;2022-07-23T15:37:34;27.30;74.00
21115;DHT22;10715;48.546;9.896;2022-07-23T15:40:00;27.20;75.00
21115;DHT22;10715;48.546;9.896;2022-07-23T15:42:26;27.20;76.50
21115;DHT22;10715;48.546;9.896;2022-07-23T15:44:52;27.20;76.20
21115;DHT22;10715;48.546;9.896;2022-07-23T15:47:18;27.20;76.50
21115;DHT22;10715;48.546;9.896;2022-07-23T15:49:45;27.20;77.60
21115;DHT22;10715;48.546;9.896;2022-07-23T15:52:11;27.30;77.20
21115;DHT22;10715;48.546;9.896;2022-07-23T15:54:38;27.30;75.60
21115;DHT22;10715;48.546;9.896;2022-07-23T15:57:04;27.20;76.80
21115;DHT22;10715;48.546;9.896;2022-07-23T15:59:30;27.10;77.40
21115;DHT22;10715;48.546;9.896;2022-07-23T16:01:56;27.00;75.90
21115;DHT22;10715;48.546;9.896;2022-07-23T16:04:22;26.90;75.40